Hollis, New Hampshire
Current Conditions -  °F | °C
As of 8:51 PM on Tuesday 21 Oct 2014 (Local Time) from KASH Reporting Station
Broken Clouds Broken Clouds  
Wind Chill: 12°   Ceiling: 800
Heat Index: 12°   Visibility: 10mi
Dew Point: 11°   Wind: 6mph
Humidity: 93%   Direction: 350°N
Pressure: 29.99"   Gusts: NA
Location:  42.74°N, 71.59°W
Report Text: KASH 220051Z AUTO 35005KT 10SM BKN008 12/11 A2999 RMK AO2 T01220111 BKN V OVC SLP408 $
Loading
Personal Weather Stations






























Interactive Weather Map
Tropical Storm Tracking
New forecast layout! Learn more

10-Day Weather Forecast

Advertisements
Track Severe Weather on mobile